Archival Weather

Chicago O'Hare International

Chicago, Illinois (KORD)

Report from: Monday, January 2, 2023 4:51 AM CST
Current time: Monday, June 17, 2024 3:00 AM CDT

Current weather – Weather history – Daily summaries
Weather forecast

Present weatherMist
Temperature0.0°C (32.0°F)
Wind chill-2.5°C (27.5°F)
Dew point-1.7°C (28.9°F)
Winds 4 kts (2.1 m/s, 4.6 mph) North (360°)
Visibility4 mi. (6.4 km)
Clouds Few clouds 200 ft. (61 m)
Ceiling: Broken clouds 14,000 ft. (4,267 m)
Altimeter30.03 in.Hg (1017 mB)
Relative humidity88 %
Density altitude-1,892 ft. (-577 m)
Sea-level pressure101.7 kPa (1017 mB, 30.04 in.Hg)
Remarks Automated weather observing station with precipitation discriminator
Visibility south west
Flight conditions Marginal Visual Meteorological Conditions
Raw dataKORD 021051Z 36004KT 4SM R10L/2200VP6000FT BR FEW002 BKN140 00/M02 A3003 RMK AO2 SLP174 VIS S-W 1 I1000 T00001017
An error has occurred. This application may no longer respond until reloaded. Reload 🗙